createdAt,value
2018-02-24T00:00:10.024Z,32.10
2018-02-24T00:01:10.049Z,32.90
2018-02-24T00:02:10.075Z,32.50
2018-02-24T00:03:10.100Z,32.70
2018-02-24T00:04:10.124Z,32.10
2018-02-24T00:05:10.152Z,34.00
2018-02-24T00:06:10.174Z,33.80
2018-02-24T00:07:10.202Z,32.20
2018-02-24T00:08:10.226Z,33.10
2018-02-24T00:09:10.250Z,34.80
2018-02-24T00:10:10.275Z,32.80
2018-02-24T00:11:10.301Z,34.30
2018-02-24T00:12:10.326Z,32.60
2018-02-24T00:13:10.351Z,32.90
2018-02-24T00:14:10.377Z,32.50
2018-02-24T00:15:10.400Z,32.30
2018-02-24T00:16:10.425Z,32.10
2018-02-24T00:17:10.452Z,32.20
2018-02-24T00:18:10.477Z,31.60
2018-02-24T00:19:10.504Z,33.30
2018-02-24T00:20:10.528Z,33.40
2018-02-24T00:21:10.551Z,33.80
2018-02-24T00:22:10.577Z,33.10
2018-02-24T00:23:10.602Z,34.30
2018-02-24T00:24:10.626Z,33.50
2018-02-24T00:25:10.651Z,32.50
2018-02-24T00:26:10.677Z,34.40
2018-02-24T00:27:10.700Z,32.20
2018-02-24T00:28:10.728Z,31.60
2018-02-24T00:29:10.752Z,32.80
2018-02-24T00:30:10.777Z,33.70
2018-02-24T00:31:10.802Z,32.50
2018-02-24T00:32:10.827Z,32.50
2018-02-24T00:33:10.852Z,32.00
2018-02-24T00:34:10.879Z,32.40
2018-02-24T00:35:10.901Z,31.90
2018-02-24T00:36:10.930Z,33.50
2018-02-24T00:37:10.951Z,34.30
2018-02-24T00:38:10.977Z,32.20
2018-02-24T00:39:11.002Z,32.20
2018-02-24T00:40:11.027Z,32.20
2018-02-24T00:41:11.050Z,32.60
2018-02-24T00:42:11.076Z,32.80
2018-02-24T00:43:11.101Z,34.10
2018-02-24T00:44:11.126Z,32.70
2018-02-24T00:45:11.151Z,31.60
2018-02-24T00:46:11.176Z,31.80
2018-02-24T00:47:11.200Z,33.50
2018-02-24T00:48:11.224Z,32.90
2018-02-24T00:49:11.251Z,34.20
2018-02-24T00:50:11.276Z,33.70
2018-02-24T00:51:11.300Z,33.80
2018-02-24T00:52:11.327Z,32.70
2018-02-24T00:53:11.349Z,33.70
2018-02-24T00:54:11.376Z,33.70
2018-02-24T00:55:11.398Z,33.10
2018-02-24T00:56:11.424Z,34.00
2018-02-24T00:57:11.449Z,33.20
2018-02-24T00:58:11.474Z,33.60
2018-02-24T00:59:11.500Z,32.90
2018-02-24T01:00:11.524Z,33.20
2018-02-24T01:01:11.549Z,33.20
2018-02-24T01:02:11.573Z,33.90
2018-02-24T01:03:11.597Z,33.30
2018-02-24T01:04:11.622Z,34.00
2018-02-24T01:05:11.648Z,32.60
2018-02-24T01:06:11.672Z,34.10
2018-02-24T01:07:11.697Z,32.50
2018-02-24T01:08:11.722Z,33.10
2018-02-24T01:09:11.746Z,34.60
2018-02-24T01:10:11.770Z,33.50
2018-02-24T01:11:11.795Z,34.10
2018-02-24T01:12:11.819Z,31.60
2018-02-24T01:13:11.845Z,32.60
2018-02-24T01:14:11.870Z,32.00
2018-02-24T01:15:11.895Z,33.40
2018-02-24T01:16:11.919Z,30.90
2018-02-24T01:17:11.944Z,31.90
2018-02-24T01:18:11.969Z,32.60
2018-02-24T01:19:11.994Z,31.00
2018-02-24T01:20:12.018Z,32.30
2018-02-24T01:21:12.043Z,31.90
2018-02-24T01:22:12.069Z,32.40
2018-02-24T01:23:12.093Z,32.50
2018-02-24T01:24:12.117Z,31.60
2018-02-24T01:25:12.143Z,30.70
2018-02-24T01:26:12.166Z,32.30
2018-02-24T01:27:12.192Z,31.20
2018-02-24T01:28:12.216Z,31.70
2018-02-24T01:29:12.242Z,30.10
2018-02-24T01:30:12.266Z,31.10
2018-02-24T01:31:12.290Z,31.10
2018-02-24T01:32:12.314Z,31.80
2018-02-24T01:33:12.343Z,30.90
2018-02-24T01:34:12.365Z,31.20
2018-02-24T01:35:12.389Z,30.60
2018-02-24T01:36:12.414Z,30.40
2018-02-24T01:37:12.440Z,31.70
2018-02-24T01:38:12.464Z,31.30
2018-02-24T01:39:12.487Z,31.30
2018-02-24T01:40:12.513Z,32.60
2018-02-24T01:41:12.537Z,30.60
2018-02-24T01:42:12.563Z,30.50
2018-02-24T01:43:12.586Z,32.00
2018-02-24T01:44:12.611Z,30.90
2018-02-24T01:45:12.637Z,31.30
2018-02-24T01:46:12.665Z,32.40
2018-02-24T01:47:12.684Z,30.50
2018-02-24T01:48:12.710Z,30.50
2018-02-24T01:49:12.736Z,32.30
2018-02-24T01:50:12.761Z,30.70
2018-02-24T01:51:12.784Z,30.40
2018-02-24T01:52:12.809Z,30.40
2018-02-24T01:53:12.835Z,30.80
2018-02-24T01:54:12.859Z,30.80
2018-02-24T01:55:12.883Z,30.20
2018-02-24T01:56:12.918Z,30.40
2018-02-24T01:57:12.933Z,29.80
2018-02-24T01:58:12.958Z,31.50
2018-02-24T01:59:12.985Z,31.10
2018-02-24T02:00:13.008Z,29.60
2018-02-24T02:01:13.034Z,31.30
2018-02-24T02:02:13.057Z,29.30
2018-02-24T02:03:13.082Z,30.70
2018-02-24T02:04:13.106Z,29.90
2018-02-24T02:05:13.132Z,30.30
2018-02-24T02:06:13.157Z,32.00
2018-02-24T02:07:13.181Z,29.60
2018-02-24T02:08:13.209Z,30.70
2018-02-24T02:09:13.238Z,30.60
2018-02-24T02:10:13.256Z,30.00
2018-02-24T02:11:13.280Z,30.40
2018-02-24T02:12:13.304Z,30.40
2018-02-24T02:13:13.331Z,29.90
2018-02-24T02:14:13.356Z,31.80
2018-02-24T02:15:13.380Z,30.10
2018-02-24T02:16:13.410Z,30.10
2018-02-24T02:17:13.430Z,29.80
2018-02-24T02:18:13.455Z,29.60
2018-02-24T02:19:13.481Z,28.70
2018-02-24T02:20:13.505Z,31.40
2018-02-24T02:21:13.530Z,30.00
2018-02-24T02:22:13.556Z,32.10
2018-02-24T02:23:13.580Z,31.10
2018-02-24T02:24:13.605Z,29.80
2018-02-24T02:25:13.631Z,30.60
2018-02-24T02:26:13.654Z,31.00
2018-02-24T02:27:13.679Z,33.10
2018-02-24T02:28:13.705Z,31.50
2018-02-24T02:29:13.729Z,31.00
2018-02-24T02:30:13.755Z,30.60
2018-02-24T02:31:13.781Z,31.30
2018-02-24T02:32:13.805Z,30.30
2018-02-24T02:33:13.830Z,32.20
2018-02-24T02:34:13.855Z,32.80
2018-02-24T02:35:13.878Z,30.00
2018-02-24T02:36:13.904Z,31.90
2018-02-24T02:37:13.929Z,32.00
2018-02-24T02:38:13.956Z,30.10
2018-02-24T02:39:13.981Z,32.00
2018-02-24T02:40:14.007Z,31.50
2018-02-24T02:41:14.031Z,33.00
2018-02-24T02:42:14.057Z,32.20
2018-02-24T02:43:14.079Z,31.80
2018-02-24T02:44:14.103Z,31.00
2018-02-24T02:45:14.131Z,30.30
2018-02-24T02:46:14.157Z,30.70
2018-02-24T02:47:14.182Z,32.00
2018-02-24T02:48:14.213Z,31.10
2018-02-24T02:49:14.229Z,30.70
2018-02-24T02:50:14.254Z,31.20
2018-02-24T02:51:14.280Z,31.40
2018-02-24T02:52:14.311Z,32.40
2018-02-24T02:53:14.329Z,32.90
2018-02-24T02:54:14.355Z,30.50
2018-02-24T02:55:14.379Z,32.10
2018-02-24T02:56:14.403Z,30.50
2018-02-24T02:57:14.431Z,32.80
2018-02-24T02:58:14.454Z,33.00
2018-02-24T02:59:14.478Z,33.10
2018-02-24T03:00:14.503Z,32.50
2018-02-24T03:01:14.529Z,30.80
2018-02-24T03:02:14.554Z,32.70
2018-02-24T03:03:14.576Z,33.60
2018-02-24T03:04:14.613Z,33.80
2018-02-24T03:05:14.627Z,33.90
2018-02-24T03:06:14.654Z,32.20
2018-02-24T03:07:14.675Z,31.30
2018-02-24T03:08:14.706Z,31.50
2018-02-24T03:09:14.725Z,33.10
2018-02-24T03:10:14.752Z,32.90
2018-02-24T03:11:14.776Z,33.70
2018-02-24T03:12:14.802Z,31.50
2018-02-24T03:13:14.826Z,32.50
2018-02-24T03:14:14.851Z,33.10
2018-02-24T03:15:14.877Z,32.80
2018-02-24T03:16:14.900Z,32.30
2018-02-24T03:17:15.001Z,33.30
2018-02-24T03:18:14.951Z,32.10
2018-02-24T03:19:14.976Z,31.50
2018-02-24T03:20:15.000Z,32.00
2018-02-24T03:21:15.031Z,34.20
2018-02-24T03:22:15.054Z,32.80
2018-02-24T03:23:15.076Z,32.60
2018-02-24T03:24:15.101Z,32.50
2018-02-24T03:25:15.126Z,32.30
2018-02-24T03:26:15.152Z,33.10
2018-02-24T03:27:15.175Z,32.40
2018-02-24T03:28:15.201Z,30.70
2018-02-24T03:29:15.230Z,32.80
2018-02-24T03:30:15.252Z,32.10
2018-02-24T03:31:15.277Z,32.00
2018-02-24T03:32:15.300Z,32.20
2018-02-24T03:33:15.325Z,32.80
2018-02-24T03:34:15.354Z,32.70
2018-02-24T03:35:15.374Z,32.30
2018-02-24T03:36:15.399Z,31.60
2018-02-24T03:37:15.426Z,32.50
2018-02-24T03:38:15.450Z,31.60
2018-02-24T03:39:15.474Z,32.00
2018-02-24T03:40:15.500Z,33.30
2018-02-24T03:41:15.524Z,32.50
2018-02-24T03:42:15.548Z,32.80
2018-02-24T03:43:15.573Z,30.90
2018-02-24T03:44:15.598Z,31.60
2018-02-24T03:45:15.623Z,32.40
2018-02-24T03:46:15.649Z,33.10
2018-02-24T03:47:15.672Z,31.10
2018-02-24T03:48:15.697Z,30.90
2018-02-24T03:49:15.722Z,31.10
2018-02-24T03:50:15.747Z,31.60
2018-02-24T03:51:15.776Z,32.60
2018-02-24T03:52:15.797Z,32.60
2018-02-24T03:53:15.822Z,31.50
2018-02-24T03:54:15.849Z,32.00
2018-02-24T03:55:15.871Z,30.80
2018-02-24T03:56:15.896Z,32.30
2018-02-24T03:57:15.920Z,29.70
2018-02-24T03:58:15.946Z,30.80
2018-02-24T03:59:15.971Z,31.40
2018-02-24T04:00:15.997Z,31.90
2018-02-24T04:01:16.020Z,32.20
2018-02-24T04:02:16.045Z,30.70
2018-02-24T04:03:16.069Z,31.00
2018-02-24T04:04:16.097Z,31.10
2018-02-24T04:05:16.118Z,30.60
2018-02-24T04:06:16.144Z,32.10
2018-02-24T04:07:16.169Z,31.80
2018-02-24T04:08:16.194Z,30.90
2018-02-24T04:09:16.219Z,32.00
2018-02-24T04:10:16.244Z,32.10
2018-02-24T04:11:16.323Z,30.70
2018-02-24T04:12:16.293Z,32.70
2018-02-24T04:13:16.322Z,31.90
2018-02-24T04:14:16.342Z,31.00
2018-02-24T04:15:16.366Z,32.50
2018-02-24T04:16:16.392Z,33.40
2018-02-24T04:17:16.418Z,33.10
2018-02-24T04:18:16.446Z,31.70
2018-02-24T04:19:16.466Z,32.90
2018-02-24T04:20:16.493Z,33.50
2018-02-24T04:21:16.517Z,31.70
2018-02-24T04:22:16.545Z,33.30
2018-02-24T04:23:16.566Z,34.20
2018-02-24T04:24:16.590Z,32.70
2018-02-24T04:25:16.616Z,32.70
2018-02-24T04:26:16.641Z,33.00
2018-02-24T04:27:16.664Z,32.90
2018-02-24T04:28:16.690Z,32.80
2018-02-24T04:29:16.714Z,31.80
2018-02-24T04:30:16.738Z,32.70
2018-02-24T04:31:16.876Z,31.40
2018-02-24T04:32:16.789Z,33.10
2018-02-24T04:33:16.813Z,31.70
2018-02-24T04:34:16.838Z,32.20
2018-02-24T04:35:16.861Z,32.50
2018-02-24T04:36:16.888Z,33.30
2018-02-24T04:37:16.911Z,34.00
2018-02-24T04:38:16.937Z,31.70
2018-02-24T04:39:16.959Z,32.80
2018-02-24T04:40:16.984Z,32.90
2018-02-24T04:41:17.009Z,31.40
2018-02-24T04:42:17.035Z,32.80
2018-02-24T04:43:17.058Z,34.00
2018-02-24T04:44:17.084Z,31.60
2018-02-24T04:45:17.107Z,33.30
2018-02-24T04:46:17.132Z,32.90
2018-02-24T04:47:17.156Z,32.10
2018-02-24T04:48:17.181Z,31.70
2018-02-24T04:49:17.205Z,33.40
2018-02-24T04:50:17.230Z,32.40
2018-02-24T04:51:17.254Z,31.60
2018-02-24T04:52:17.279Z,32.60
2018-02-24T04:53:17.303Z,33.70
2018-02-24T04:54:17.328Z,32.80
2018-02-24T04:55:17.350Z,34.30
2018-02-24T04:56:17.376Z,31.40
2018-02-24T04:57:17.401Z,32.60
2018-02-24T04:58:17.427Z,32.40
2018-02-24T04:59:17.451Z,31.20
2018-02-24T05:00:17.473Z,31.90
2018-02-24T05:01:17.499Z,31.00
2018-02-24T05:02:17.523Z,32.40
2018-02-24T05:03:17.547Z,32.60
2018-02-24T05:04:17.571Z,32.20
2018-02-24T05:05:17.596Z,31.40
2018-02-24T05:06:17.623Z,31.40
2018-02-24T05:07:17.644Z,33.50
2018-02-24T05:08:17.668Z,32.60
2018-02-24T05:09:17.693Z,33.60
2018-02-24T05:10:17.719Z,33.20
2018-02-24T05:11:17.742Z,33.30
2018-02-24T05:12:17.766Z,32.50
2018-02-24T05:13:17.790Z,30.80
2018-02-24T05:14:17.815Z,32.60
2018-02-24T05:15:17.838Z,32.20
2018-02-24T05:16:17.863Z,31.40
2018-02-24T05:17:17.887Z,32.60
2018-02-24T05:18:17.912Z,31.60
2018-02-24T05:19:17.935Z,32.30
2018-02-24T05:20:17.959Z,32.60
2018-02-24T05:21:17.984Z,32.00
2018-02-24T05:22:18.009Z,32.40
2018-02-24T05:23:18.032Z,32.10
2018-02-24T05:24:18.057Z,33.20
2018-02-24T05:25:18.082Z,33.70
2018-02-24T05:26:18.106Z,33.40
2018-02-24T05:27:18.128Z,32.30
2018-02-24T05:28:18.152Z,32.40
2018-02-24T05:29:18.177Z,32.70
2018-02-24T05:30:18.202Z,32.40
2018-02-24T05:31:18.225Z,33.40
2018-02-24T05:32:18.248Z,32.80
2018-02-24T05:33:18.273Z,32.20
2018-02-24T05:34:18.297Z,33.50
2018-02-24T05:35:18.320Z,33.30
2018-02-24T05:36:18.345Z,32.10
2018-02-24T05:37:18.368Z,33.80
2018-02-24T05:38:18.393Z,32.70
2018-02-24T05:39:18.417Z,33.00
2018-02-24T05:40:18.440Z,34.80
2018-02-24T05:41:18.465Z,31.70
2018-02-24T05:42:18.489Z,33.30
2018-02-24T05:43:18.511Z,33.40
2018-02-24T05:44:18.536Z,32.30
2018-02-24T05:45:18.560Z,32.40
2018-02-24T05:46:18.589Z,34.40
2018-02-24T05:47:18.611Z,33.40
2018-02-24T05:48:18.632Z,32.40
2018-02-24T05:49:18.659Z,33.20
2018-02-24T05:50:18.679Z,35.10
2018-02-24T05:51:18.758Z,33.10
2018-02-24T05:52:18.727Z,31.90
2018-02-24T05:53:18.752Z,31.80
2018-02-24T05:54:18.775Z,32.40
2018-02-24T05:55:18.798Z,32.20
2018-02-24T05:56:18.823Z,32.50
2018-02-24T05:57:18.848Z,33.90
2018-02-24T05:58:18.870Z,31.80
2018-02-24T05:59:18.893Z,33.30
2018-02-24T06:00:18.918Z,33.20
2018-02-24T06:01:18.942Z,34.00
2018-02-24T06:02:18.967Z,34.40
2018-02-24T06:03:18.989Z,34.90
2018-02-24T06:04:19.012Z,33.80
2018-02-24T06:05:19.041Z,33.00
2018-02-24T06:06:19.061Z,33.80
2018-02-24T06:07:19.084Z,33.80
2018-02-24T06:08:19.107Z,34.10
2018-02-24T06:09:19.130Z,32.90
2018-02-24T06:10:19.155Z,32.90
2018-02-24T06:11:19.179Z,31.60
2018-02-24T06:12:19.203Z,33.90
2018-02-24T06:13:19.226Z,33.30
2018-02-24T06:14:19.249Z,32.90
2018-02-24T06:15:19.273Z,32.30
2018-02-24T06:16:19.298Z,34.60
2018-02-24T06:17:19.321Z,33.70
2018-02-24T06:18:19.344Z,32.70
2018-02-24T06:19:19.368Z,30.50
2018-02-24T06:20:19.390Z,33.50
2018-02-24T06:21:19.420Z,31.90
2018-02-24T06:22:19.443Z,31.90
2018-02-24T06:23:19.461Z,32.60
2018-02-24T06:24:19.486Z,32.40
2018-02-24T06:25:19.510Z,33.20
2018-02-24T06:26:19.533Z,31.60
2018-02-24T06:27:19.558Z,30.80
2018-02-24T06:28:19.580Z,34.40
2018-02-24T06:29:19.605Z,148.40
2018-02-24T06:30:19.628Z,162.90
2018-02-24T06:31:19.651Z,82.00
2018-02-24T06:32:19.675Z,52.90
2018-02-24T06:33:19.699Z,39.60
2018-02-24T06:34:19.724Z,35.10
2018-02-24T06:35:19.789Z,32.00
2018-02-24T06:36:19.770Z,32.50
2018-02-24T06:37:19.794Z,33.50
2018-02-24T06:38:19.818Z,33.30
2018-02-24T06:39:19.848Z,33.00
2018-02-24T06:40:19.864Z,32.50
2018-02-24T06:41:19.888Z,31.00
2018-02-24T06:42:19.914Z,32.50
2018-02-24T06:43:19.937Z,32.30
2018-02-24T06:44:19.961Z,33.10
2018-02-24T06:45:19.984Z,33.30
2018-02-24T06:46:20.009Z,32.60
2018-02-24T06:47:20.032Z,32.50
2018-02-24T06:48:20.056Z,31.90
2018-02-24T06:49:20.079Z,33.00
2018-02-24T06:50:20.103Z,33.10
2018-02-24T06:51:20.127Z,33.70
2018-02-24T06:52:20.151Z,32.60
2018-02-24T06:53:20.175Z,33.30
2018-02-24T06:54:20.203Z,31.70
2018-02-24T06:55:20.222Z,32.70
2018-02-24T06:56:20.246Z,32.40
2018-02-24T06:57:20.270Z,33.50
2018-02-24T06:58:20.294Z,34.10
2018-02-24T06:59:20.316Z,33.40
2018-02-24T07:00:20.341Z,34.60
2018-02-24T07:01:20.363Z,33.10
2018-02-24T07:02:20.388Z,33.00
2018-02-24T07:03:20.411Z,32.70
2018-02-24T07:04:20.435Z,34.00
2018-02-24T07:05:20.459Z,33.40
2018-02-24T07:06:20.482Z,34.50
2018-02-24T07:07:20.509Z,35.10
2018-02-24T07:08:20.535Z,33.60
2018-02-24T07:09:20.554Z,34.50
2018-02-24T07:10:20.577Z,33.50
2018-02-24T07:11:20.599Z,34.10
2018-02-24T07:12:20.631Z,35.60
2018-02-24T07:13:20.647Z,32.80
2018-02-24T07:14:20.671Z,34.60
2018-02-24T07:15:20.692Z,34.50
2018-02-24T07:16:20.717Z,32.70
2018-02-24T07:17:20.740Z,35.80
2018-02-24T07:18:20.805Z,32.70
2018-02-24T07:19:20.787Z,35.00
2018-02-24T07:20:20.815Z,34.10
2018-02-24T07:21:20.834Z,34.60
2018-02-24T07:22:20.859Z,33.80
2018-02-24T07:23:20.883Z,32.90
2018-02-24T07:24:20.906Z,34.70
2018-02-24T07:25:20.931Z,34.60
2018-02-24T07:26:20.954Z,33.60
2018-02-24T07:27:20.978Z,34.70
2018-02-24T07:28:21.002Z,34.70
2018-02-24T07:29:21.026Z,32.50
2018-02-24T07:30:21.050Z,33.30
2018-02-24T07:31:21.074Z,33.00
2018-02-24T07:32:21.099Z,31.30
2018-02-24T07:33:21.121Z,30.10
2018-02-24T07:34:21.145Z,28.30
2018-02-24T07:35:21.169Z,28.40
2018-02-24T07:36:21.194Z,29.30
2018-02-24T07:37:21.218Z,28.50
2018-02-24T07:38:21.242Z,28.40
2018-02-24T07:39:21.266Z,28.00
2018-02-24T07:40:21.291Z,28.30
2018-02-24T07:41:21.315Z,28.50
2018-02-24T07:42:21.340Z,28.80
2018-02-24T07:43:21.368Z,29.00
2018-02-24T07:44:21.389Z,28.70
2018-02-24T07:45:21.412Z,29.50
2018-02-24T07:46:21.436Z,28.40
2018-02-24T07:47:21.460Z,29.10
2018-02-24T07:48:21.487Z,28.10
2018-02-24T07:49:21.510Z,28.20
2018-02-24T07:50:21.535Z,27.60
2018-02-24T07:51:21.558Z,29.30
2018-02-24T07:52:21.582Z,29.50
2018-02-24T07:53:21.608Z,33.80
2018-02-24T07:54:21.632Z,31.60
2018-02-24T07:55:21.658Z,28.30
2018-02-24T07:56:21.682Z,28.60
2018-02-24T07:57:21.706Z,29.70
2018-02-24T07:58:21.731Z,28.10
2018-02-24T07:59:21.755Z,28.10
2018-02-24T08:00:21.786Z,29.30
2018-02-24T08:01:21.806Z,29.90
2018-02-24T08:02:21.831Z,28.90
2018-02-24T08:03:21.854Z,31.50
2018-02-24T08:04:21.887Z,29.40
2018-02-24T08:05:21.904Z,30.30
2018-02-24T08:06:21.929Z,28.90
2018-02-24T08:07:21.953Z,28.00
2018-02-24T08:08:21.978Z,28.50
2018-02-24T08:09:22.004Z,27.70
2018-02-24T08:10:22.030Z,28.60
2018-02-24T08:11:22.054Z,27.40
2018-02-24T08:12:22.078Z,27.50
2018-02-24T08:13:22.104Z,27.30
2018-02-24T08:14:22.130Z,28.50
2018-02-24T08:15:22.154Z,29.50
2018-02-24T08:16:22.184Z,28.30
2018-02-24T08:17:22.205Z,28.60
2018-02-24T08:18:22.238Z,29.20
2018-02-24T08:19:22.254Z,27.60
2018-02-24T08:20:22.281Z,28.50
2018-02-24T08:21:22.307Z,28.40
2018-02-24T08:22:22.332Z,28.00
2018-02-24T08:23:22.357Z,29.20
2018-02-24T08:24:22.381Z,27.70
2018-02-24T08:25:22.407Z,27.40
2018-02-24T08:26:22.433Z,28.00
2018-02-24T08:27:22.457Z,28.80
2018-02-24T08:28:22.483Z,28.80
2018-02-24T08:29:22.513Z,28.70
2018-02-24T08:30:22.534Z,27.70
2018-02-24T08:31:22.564Z,27.90
2018-02-24T08:32:22.584Z,30.10
2018-02-24T08:33:22.610Z,29.10
2018-02-24T08:34:22.635Z,28.20
2018-02-24T08:35:22.661Z,28.40
2018-02-24T08:36:22.687Z,27.60
2018-02-24T08:37:22.712Z,27.90
2018-02-24T08:38:22.740Z,28.60
2018-02-24T08:39:22.775Z,27.80
2018-02-24T08:40:22.788Z,28.50
2018-02-24T08:41:22.814Z,28.10
2018-02-24T08:42:22.841Z,26.40
2018-02-24T08:43:22.865Z,29.40
2018-02-24T08:44:22.890Z,28.40
2018-02-24T08:45:22.917Z,28.60
2018-02-24T08:46:22.942Z,27.50
2018-02-24T08:47:22.971Z,27.30
2018-02-24T08:48:22.992Z,27.90
2018-02-24T08:49:23.018Z,27.80
2018-02-24T08:50:23.044Z,29.40
2018-02-24T08:51:23.069Z,27.40
2018-02-24T08:52:23.095Z,27.60
2018-02-24T08:53:23.120Z,28.50
2018-02-24T08:54:23.147Z,27.50
2018-02-24T08:55:23.170Z,27.40
2018-02-24T08:56:23.196Z,28.50
2018-02-24T08:57:23.222Z,27.30
2018-02-24T08:58:23.247Z,28.40
2018-02-24T08:59:23.272Z,27.00
2018-02-24T09:00:23.299Z,28.00
2018-02-24T09:01:23.325Z,26.90
2018-02-24T09:02:23.351Z,27.10
2018-02-24T09:03:23.377Z,27.40
2018-02-24T09:04:23.401Z,29.10
2018-02-24T09:05:23.427Z,27.30
2018-02-24T09:06:23.453Z,28.20
2018-02-24T09:07:23.480Z,29.50
2018-02-24T09:08:23.504Z,26.60
2018-02-24T09:09:23.528Z,28.70
2018-02-24T09:10:23.556Z,28.50
2018-02-24T09:11:23.579Z,27.30
2018-02-24T09:12:23.606Z,27.50
2018-02-24T09:13:23.671Z,29.30
2018-02-24T09:14:23.658Z,28.30
2018-02-24T09:15:23.684Z,28.30
2018-02-24T09:16:23.710Z,27.20
2018-02-24T09:17:23.737Z,27.20
2018-02-24T09:18:23.763Z,28.40
2018-02-24T09:19:23.789Z,28.50
2018-02-24T09:20:23.814Z,26.20
2018-02-24T09:21:23.840Z,27.10
2018-02-24T09:22:23.867Z,28.50
2018-02-24T09:23:23.893Z,27.10
2018-02-24T09:24:23.920Z,26.50
2018-02-24T09:25:23.944Z,27.60
2018-02-24T09:26:23.973Z,28.80
2018-02-24T09:27:23.998Z,26.70
2018-02-24T09:28:24.025Z,27.40
2018-02-24T09:29:24.051Z,27.70
2018-02-24T09:30:24.079Z,28.00
2018-02-24T09:31:24.104Z,26.50
2018-02-24T09:32:24.133Z,26.40
2018-02-24T09:33:24.160Z,28.40
2018-02-24T09:34:24.188Z,27.30
2018-02-24T09:35:24.216Z,26.80
2018-02-24T09:36:24.244Z,27.50
2018-02-24T09:37:24.272Z,27.00
2018-02-24T09:38:24.303Z,27.50
2018-02-24T09:39:24.331Z,26.90
2018-02-24T09:40:24.362Z,27.30
2018-02-24T09:41:24.394Z,27.40
2018-02-24T09:42:24.423Z,27.10
2018-02-24T09:43:24.454Z,28.50
2018-02-24T09:44:24.485Z,28.80
2018-02-24T09:45:24.516Z,28.20
2018-02-24T09:46:24.549Z,27.40
2018-02-24T09:47:24.580Z,26.60
2018-02-24T09:48:24.612Z,27.20
2018-02-24T09:49:24.646Z,26.20
2018-02-24T09:50:24.679Z,25.80
2018-02-24T09:51:24.712Z,28.80
2018-02-24T09:52:24.746Z,26.50
2018-02-24T09:53:24.780Z,25.10
2018-02-24T09:54:24.815Z,26.00
2018-02-24T09:55:24.850Z,26.10
2018-02-24T09:56:24.884Z,25.70
2018-02-24T09:57:24.920Z,24.90
2018-02-24T09:58:24.956Z,25.60
2018-02-24T09:59:24.992Z,26.60
2018-02-24T10:00:25.026Z,25.10
2018-02-24T10:01:25.063Z,26.00
2018-02-24T10:02:25.097Z,22.60
2018-02-24T10:03:25.140Z,24.80
2018-02-24T10:04:25.172Z,22.10
2018-02-24T10:05:25.208Z,24.10
2018-02-24T10:06:25.247Z,24.80
2018-02-24T10:07:25.282Z,25.10
2018-02-24T10:08:25.320Z,25.60
2018-02-24T10:09:25.357Z,23.80
2018-02-24T10:10:25.395Z,23.30
2018-02-24T10:11:25.433Z,24.50
2018-02-24T10:12:25.471Z,24.40
2018-02-24T10:13:25.509Z,22.60
2018-02-24T10:14:25.547Z,24.50
2018-02-24T10:15:25.584Z,24.10
2018-02-24T10:16:25.623Z,24.30
2018-02-24T10:17:25.660Z,24.50
2018-02-24T10:18:25.699Z,23.70
2018-02-24T10:19:25.742Z,24.80
2018-02-24T10:20:25.777Z,23.40
2018-02-24T10:21:25.815Z,23.70
2018-02-24T10:22:25.854Z,22.80
2018-02-24T10:23:25.892Z,23.40
2018-02-24T10:24:25.930Z,22.90
2018-02-24T10:25:25.970Z,22.20
2018-02-24T10:26:26.010Z,22.60
2018-02-24T10:27:26.047Z,23.80
2018-02-24T10:28:26.088Z,24.10
2018-02-24T10:29:26.127Z,22.40
2018-02-24T10:30:26.167Z,24.00
2018-02-24T10:31:26.208Z,23.80
2018-02-24T10:32:26.247Z,23.10
2018-02-24T10:33:26.288Z,24.20
2018-02-24T10:34:26.328Z,23.70
2018-02-24T10:35:26.365Z,21.80
2018-02-24T10:36:26.407Z,21.60
2018-02-24T10:37:26.448Z,22.80
2018-02-24T10:38:26.489Z,21.80
2018-02-24T10:39:26.528Z,23.60
2018-02-24T10:40:26.568Z,22.20
2018-02-24T10:41:26.609Z,22.70
2018-02-24T10:42:26.651Z,23.00
2018-02-24T10:43:26.695Z,22.10
2018-02-24T10:44:26.733Z,23.70
2018-02-24T10:45:26.778Z,23.50
2018-02-24T10:46:26.816Z,23.50
2018-02-24T10:47:26.855Z,22.20
2018-02-24T10:48:26.898Z,23.60
2018-02-24T10:49:26.939Z,22.50
2018-02-24T10:50:26.980Z,21.40
2018-02-24T10:51:27.021Z,23.70
2018-02-24T10:52:27.062Z,24.70
2018-02-24T10:53:27.103Z,22.70
2018-02-24T10:54:27.144Z,22.70
2018-02-24T10:55:27.186Z,23.20
2018-02-24T10:56:27.228Z,23.30
2018-02-24T10:57:27.270Z,22.70
2018-02-24T10:58:27.312Z,23.30
2018-02-24T10:59:27.353Z,22.80
2018-02-24T11:00:27.394Z,23.00
2018-02-24T11:01:27.436Z,24.70
2018-02-24T11:02:27.477Z,24.10
2018-02-24T11:03:27.518Z,24.40
2018-02-24T11:04:27.561Z,24.10
2018-02-24T11:05:27.601Z,24.10
2018-02-24T11:06:27.644Z,23.80
2018-02-24T11:07:27.687Z,25.00
2018-02-24T11:08:27.727Z,24.00
2018-02-24T11:09:27.769Z,22.20
2018-02-24T11:10:27.812Z,22.80
2018-02-24T11:11:27.854Z,23.20
2018-02-24T11:12:27.895Z,24.10
2018-02-24T11:13:27.974Z,23.00
2018-02-24T11:14:27.979Z,24.90
2018-02-24T11:15:28.020Z,22.80
2018-02-24T11:16:28.062Z,23.50
2018-02-24T11:17:28.104Z,25.00
2018-02-24T11:18:28.147Z,22.80
2018-02-24T11:19:28.191Z,22.40
2018-02-24T11:20:28.233Z,23.40
2018-02-24T11:21:28.274Z,23.40
2018-02-24T11:22:28.316Z,24.10
2018-02-24T11:23:28.358Z,24.20
2018-02-24T11:24:28.400Z,25.70
2018-02-24T11:25:28.443Z,24.80
2018-02-24T11:26:28.486Z,24.70
2018-02-24T11:27:28.528Z,24.20
2018-02-24T11:28:28.570Z,22.80
2018-02-24T11:29:28.613Z,23.20
2018-02-24T11:30:28.656Z,23.30
2018-02-24T11:31:28.698Z,22.50
2018-02-24T11:32:28.740Z,22.70
2018-02-24T11:33:28.784Z,22.50
2018-02-24T11:34:28.827Z,22.40
2018-02-24T11:35:28.868Z,24.20
2018-02-24T11:36:28.912Z,23.30
2018-02-24T11:37:28.954Z,21.90
2018-02-24T11:38:28.998Z,22.20
2018-02-24T11:39:29.040Z,21.50
2018-02-24T11:40:29.083Z,21.90
2018-02-24T11:41:29.127Z,23.40
2018-02-24T11:42:29.170Z,21.00
2018-02-24T11:43:29.214Z,22.70
2018-02-24T11:44:29.278Z,21.50
2018-02-24T11:45:29.304Z,21.80
2018-02-24T11:46:29.344Z,21.50
2018-02-24T11:47:29.386Z,20.40
2018-02-24T11:48:29.430Z,20.30
2018-02-24T11:49:29.475Z,21.10
2018-02-24T11:50:29.518Z,21.20
2018-02-24T11:51:29.562Z,20.10
2018-02-24T11:52:29.606Z,20.80
2018-02-24T11:53:29.650Z,20.10
2018-02-24T11:54:29.695Z,19.30
2018-02-24T11:55:29.737Z,19.50
2018-02-24T11:56:29.785Z,20.20
2018-02-24T11:57:29.826Z,19.90
2018-02-24T11:58:29.871Z,19.10
2018-02-24T11:59:29.914Z,18.90
2018-02-24T12:00:29.958Z,18.90
2018-02-24T12:01:30.003Z,19.10
2018-02-24T12:02:30.047Z,17.70
2018-02-24T12:03:30.148Z,16.80
2018-02-24T12:04:30.139Z,18.00
2018-02-24T12:05:30.179Z,17.40
2018-02-24T12:06:30.223Z,16.10
2018-02-24T12:07:30.267Z,16.10
2018-02-24T12:08:30.314Z,16.50
2018-02-24T12:09:30.360Z,17.50
2018-02-24T12:10:30.400Z,16.10
2018-02-24T12:11:30.444Z,16.70
2018-02-24T12:12:30.489Z,15.50
2018-02-24T12:13:30.536Z,14.90
2018-02-24T12:14:30.578Z,15.70
2018-02-24T12:15:30.622Z,14.50
2018-02-24T12:16:30.667Z,13.30
2018-02-24T12:17:30.713Z,14.70
2018-02-24T12:18:30.755Z,14.40
2018-02-24T12:19:30.799Z,13.80
2018-02-24T12:20:30.843Z,13.40
2018-02-24T12:21:30.888Z,14.50
2018-02-24T12:22:30.932Z,13.50
2018-02-24T12:23:30.976Z,12.70
2018-02-24T12:24:31.021Z,13.20
2018-02-24T12:25:31.065Z,13.20
2018-02-24T12:26:31.109Z,12.70
2018-02-24T12:27:31.155Z,13.90
2018-02-24T12:28:31.200Z,12.60
2018-02-24T12:29:31.244Z,12.60
2018-02-24T12:30:31.291Z,12.50
2018-02-24T12:31:31.341Z,12.30
2018-02-24T12:32:31.381Z,11.50
2018-02-24T12:33:31.430Z,12.40
2018-02-24T12:34:31.473Z,12.30
2018-02-24T12:35:31.517Z,11.60
2018-02-24T12:36:31.563Z,11.40
2018-02-24T12:37:31.608Z,12.10
2018-02-24T12:38:31.654Z,11.30
2018-02-24T12:39:31.699Z,10.70
2018-02-24T12:40:31.744Z,10.80
2018-02-24T12:41:31.789Z,10.80
2018-02-24T12:42:31.835Z,10.50
2018-02-24T12:43:31.880Z,10.60
2018-02-24T12:44:31.926Z,10.10
2018-02-24T12:45:31.971Z,11.90
2018-02-24T12:46:32.026Z,11.60
2018-02-24T12:47:32.062Z,10.50
2018-02-24T12:48:32.108Z,10.40
2018-02-24T12:49:32.153Z,10.20
2018-02-24T12:50:32.198Z,9.90
2018-02-24T12:51:32.244Z,9.80
2018-02-24T12:52:32.288Z,9.50